createdAt,value
2018-03-16T00:07:45.272Z,38
2018-03-16T00:17:45.168Z,37
2018-03-16T00:27:45.166Z,40
2018-03-16T00:37:45.173Z,45
2018-03-16T00:47:45.094Z,40
2018-03-16T00:57:45.185Z,42
2018-03-16T01:07:47.051Z,44
2018-03-16T01:17:47.157Z,43
2018-03-16T01:27:46.096Z,43
2018-03-16T01:37:45.166Z,46
2018-03-16T01:47:45.164Z,42
2018-03-16T01:57:45.208Z,47
2018-03-16T02:07:45.159Z,50
2018-03-16T02:17:45.073Z,48
2018-03-16T02:27:46.124Z,46
2018-03-16T02:37:45.108Z,43
2018-03-16T02:47:45.096Z,50
2018-03-16T02:57:45.189Z,43
2018-03-16T03:07:45.130Z,51
2018-03-16T03:17:46.100Z,55
2018-03-16T03:27:46.161Z,54
2018-03-16T03:37:46.092Z,52
2018-03-16T03:47:45.201Z,52
2018-03-16T03:57:46.127Z,56
2018-03-16T04:07:45.105Z,57
2018-03-16T04:17:45.151Z,62
2018-03-16T04:27:45.024Z,58
2018-03-16T04:37:45.046Z,58
2018-03-16T04:47:45.139Z,59
2018-03-16T04:57:45.042Z,62
2018-03-16T05:07:45.104Z,54
2018-03-16T05:17:46.138Z,64
2018-03-16T05:27:46.055Z,66
2018-03-16T05:37:45.120Z,58
2018-03-16T05:47:45.030Z,59
2018-03-16T05:57:45.064Z,59
2018-03-16T06:07:45.105Z,59
2018-03-16T06:17:45.081Z,60
2018-03-16T06:27:50.210Z,60
2018-03-16T06:37:45.100Z,63
2018-03-16T06:47:45.105Z,61
2018-03-16T06:57:45.176Z,67
2018-03-16T07:07:45.041Z,59
2018-03-16T07:17:45.039Z,61
2018-03-16T07:27:48.100Z,59
2018-03-16T07:37:45.059Z,60
2018-03-16T07:47:45.511Z,60
2018-03-16T07:57:45.156Z,58
2018-03-16T08:07:46.161Z,55
2018-03-16T08:17:45.095Z,54
2018-03-16T08:27:46.109Z,55
2018-03-16T08:37:45.094Z,46
2018-03-16T08:47:45.092Z,50
2018-03-16T08:57:45.188Z,48
2018-03-16T09:07:45.151Z,51
2018-03-16T09:17:45.169Z,41
2018-03-16T09:27:45.097Z,47
2018-03-16T09:37:45.057Z,42
2018-03-16T09:47:45.182Z,32
2018-03-16T09:57:44.997Z,26
2018-03-16T10:07:44.969Z,23
2018-03-16T10:17:45.127Z,27
2018-03-16T10:27:46.046Z,20
2018-03-16T10:37:45.123Z,20
2018-03-16T10:47:45.049Z,24
2018-03-16T10:57:44.995Z,24
2018-03-16T11:07:44.975Z,18
2018-03-16T11:17:45.022Z,23
2018-03-16T11:27:45.002Z,21
2018-03-16T11:37:44.990Z,19
2018-03-16T11:47:44.952Z,17
2018-03-16T11:57:44.886Z,18
2018-03-16T12:07:45.054Z,17
2018-03-16T12:17:44.962Z,14
2018-03-16T12:27:45.003Z,17
2018-03-16T12:37:44.968Z,17
2018-03-16T12:47:44.925Z,19
2018-03-16T12:57:58.317Z,19
2018-03-16T13:07:44.913Z,19
2018-03-16T13:17:51.231Z,20
2018-03-16T13:27:46.017Z,22
2018-03-16T13:37:45.009Z,24
2018-03-16T13:47:44.998Z,24
2018-03-16T13:57:45.020Z,21
2018-03-16T14:07:44.958Z,19
2018-03-16T14:17:47.965Z,20
2018-03-16T14:27:44.988Z,18
2018-03-16T14:37:45.249Z,20
2018-03-16T14:47:44.965Z,18
2018-03-16T14:57:44.829Z,18
2018-03-16T15:07:44.983Z,20
2018-03-16T15:17:44.974Z,15
2018-03-16T15:27:44.912Z,17
2018-03-16T15:37:45.023Z,18
2018-03-16T15:47:45.011Z,16
2018-03-16T15:57:44.874Z,15
2018-03-16T16:07:44.944Z,15
2018-03-16T16:17:45.132Z,14
2018-03-16T16:27:45.067Z,17
2018-03-16T16:37:44.922Z,14
2018-03-16T16:47:44.946Z,12
2018-03-16T16:57:44.933Z,16
2018-03-16T17:07:44.925Z,14
2018-03-16T17:17:44.842Z,10
2018-03-16T17:27:44.970Z,12
2018-03-16T17:37:45.006Z,11
2018-03-16T17:47:44.889Z,9
2018-03-16T17:57:44.901Z,15
2018-03-16T18:07:44.840Z,15
2018-03-16T18:17:44.978Z,15
2018-03-16T18:27:44.883Z,12
2018-03-16T18:37:44.914Z,12
2018-03-16T18:47:44.973Z,16
2018-03-16T18:57:44.989Z,16
2018-03-16T19:07:44.893Z,11
2018-03-16T19:17:44.869Z,15
2018-03-16T19:27:44.886Z,13
2018-03-16T19:37:44.907Z,12
2018-03-16T19:47:44.935Z,10
2018-03-16T19:57:44.864Z,11
2018-03-16T20:07:44.957Z,12
2018-03-16T20:17:44.918Z,10
2018-03-16T20:27:44.749Z,12
2018-03-16T20:37:44.933Z,11
2018-03-16T20:47:44.856Z,10
2018-03-16T20:57:44.871Z,12
2018-03-16T21:07:44.939Z,13
2018-03-16T21:17:44.941Z,11
2018-03-16T21:27:44.787Z,8
2018-03-16T21:37:44.973Z,12
2018-03-16T21:47:44.856Z,9
2018-03-16T21:57:44.796Z,9
2018-03-16T22:07:44.969Z,7
2018-03-16T22:17:45.268Z,8
2018-03-16T22:27:44.784Z,10
2018-03-16T22:37:45.059Z,9
2018-03-16T22:47:45.288Z,6
2018-03-16T22:57:47.903Z,5
2018-03-16T23:07:45.083Z,8
2018-03-16T23:17:49.488Z,5
2018-03-16T23:27:45.130Z,12
2018-03-16T23:37:57.911Z,8
2018-03-16T23:48:46.480Z,7
2018-03-16T23:58:08.048Z,10
